createdAt,value
2023-05-18T00:01:55.564Z,73.02
2023-05-18T00:04:25.402Z,73.17
2023-05-18T00:07:00.115Z,73.50
2023-05-18T00:09:28.083Z,74.06
2023-05-18T00:11:56.109Z,74.49
2023-05-18T00:14:24.129Z,74.05
2023-05-18T00:16:55.220Z,73.81
2023-05-18T00:19:24.033Z,74.37
2023-05-18T00:21:53.114Z,74.40
2023-05-18T00:24:21.127Z,73.63
2023-05-18T00:26:49.671Z,74.53
2023-05-18T00:29:17.990Z,73.99
2023-05-18T00:31:46.784Z,73.60
2023-05-18T00:34:15.299Z,73.19
2023-05-18T00:36:43.352Z,73.04
2023-05-18T00:39:11.683Z,73.01
2023-05-18T00:41:40.153Z,73.45
2023-05-18T00:44:08.248Z,73.48
2023-05-18T00:46:36.427Z,74.61
2023-05-18T00:49:04.490Z,73.88
2023-05-18T00:51:33.946Z,74.85
2023-05-18T00:54:02.506Z,75.21
2023-05-18T00:56:30.557Z,74.82
2023-05-18T00:58:58.861Z,74.90
2023-05-18T01:01:31.468Z,74.31
2023-05-18T01:03:59.697Z,75.13
2023-05-18T01:06:27.711Z,76.04
2023-05-18T01:08:55.735Z,75.62
2023-05-18T01:11:34.272Z,76.08
2023-05-18T01:14:21.638Z,77.08
2023-05-18T01:16:55.699Z,76.59
2023-05-18T01:19:46.261Z,76.78
2023-05-18T01:22:40.202Z,77.07
2023-05-18T01:25:31.236Z,78.07
2023-05-18T01:28:07.617Z,77.93
2023-05-18T01:30:37.582Z,77.96
2023-05-18T01:33:10.919Z,77.51
2023-05-18T01:35:39.118Z,79.01
2023-05-18T01:38:07.141Z,78.49
2023-05-18T01:43:07.927Z,80.64
2023-05-18T01:45:36.179Z,79.74
2023-05-18T01:48:04.271Z,79.53
2023-05-18T01:50:39.097Z,79.29
2023-05-18T01:53:25.131Z,79.38
2023-05-18T01:55:54.339Z,79.77
2023-05-18T01:58:22.715Z,78.71
2023-05-18T02:00:50.694Z,79.04
2023-05-18T02:03:18.978Z,78.30
2023-05-18T02:05:48.641Z,79.59
2023-05-18T02:08:17.717Z,78.20
2023-05-18T02:10:45.708Z,77.95
2023-05-18T02:13:13.661Z,78.17
2023-05-18T02:15:41.772Z,77.99
2023-05-18T02:18:09.842Z,76.90
2023-05-18T02:20:39.466Z,77.73
2023-05-18T02:23:07.523Z,76.83
2023-05-18T02:25:35.601Z,76.87
2023-05-18T02:28:03.577Z,77.24
2023-05-18T02:30:34.569Z,77.82
2023-05-18T02:33:02.622Z,77.99
2023-05-18T02:35:31.109Z,77.36
2023-05-18T02:37:59.590Z,77.42
2023-05-18T02:40:27.579Z,77.19
2023-05-18T02:42:55.570Z,78.40
2023-05-18T02:45:23.656Z,78.27
2023-05-18T02:47:51.706Z,77.10
2023-05-18T02:50:19.677Z,78.09
2023-05-18T02:52:50.466Z,77.03
2023-05-18T02:55:18.725Z,76.80
2023-05-18T02:57:48.473Z,77.33
2023-05-18T03:00:18.100Z,78.32
2023-05-18T03:02:49.693Z,78.48
2023-05-18T03:05:18.147Z,78.67
2023-05-18T03:07:52.072Z,77.23
2023-05-18T03:10:20.825Z,77.19
2023-05-18T03:12:49.334Z,76.58
2023-05-18T03:15:20.962Z,77.94
2023-05-18T03:17:48.981Z,78.26
2023-05-18T03:20:16.983Z,78.21
2023-05-18T03:22:44.958Z,78.75
2023-05-18T03:25:13.502Z,78.44
2023-05-18T03:27:41.525Z,78.36
2023-05-18T03:30:10.296Z,78.44
2023-05-18T03:32:38.536Z,78.55
2023-05-18T03:35:07.063Z,77.12
2023-05-18T03:37:35.162Z,76.87
2023-05-18T03:40:12.517Z,77.76
2023-05-18T03:42:41.210Z,79.10
2023-05-18T03:45:10.201Z,78.77
2023-05-18T03:47:38.682Z,78.47
2023-05-18T03:50:07.416Z,78.32
2023-05-18T03:52:35.897Z,80.06
2023-05-18T03:55:03.914Z,79.65
2023-05-18T03:57:32.544Z,78.58
2023-05-18T04:00:00.710Z,80.33
2023-05-18T04:02:28.829Z,79.00
2023-05-18T04:04:59.364Z,81.10
2023-05-18T04:07:27.852Z,79.86
2023-05-18T04:09:57.487Z,79.54
2023-05-18T04:12:25.567Z,78.99
2023-05-18T04:14:55.788Z,80.40
2023-05-18T04:17:24.235Z,79.46
2023-05-18T04:19:52.564Z,80.36
2023-05-18T04:22:20.608Z,80.83
2023-05-18T04:24:48.841Z,81.17
2023-05-18T04:27:16.809Z,80.93
2023-05-18T04:29:45.525Z,83.52
2023-05-18T04:32:13.563Z,81.57
2023-05-18T04:34:42.299Z,80.06
2023-05-18T04:37:11.839Z,79.83
2023-05-18T04:39:40.900Z,80.16
2023-05-18T04:42:09.068Z,79.78
2023-05-18T04:44:38.811Z,81.29
2023-05-18T04:47:09.733Z,79.46
2023-05-18T04:49:37.696Z,80.60
2023-05-18T04:52:07.926Z,80.27
2023-05-18T04:54:35.877Z,79.89
2023-05-18T04:57:04.998Z,80.12
2023-05-18T04:59:33.044Z,80.29
2023-05-18T05:02:01.023Z,80.09
2023-05-18T05:04:29.093Z,79.79
2023-05-18T05:06:57.125Z,79.50
2023-05-18T05:09:25.158Z,79.54
2023-05-18T05:11:53.271Z,80.75
2023-05-18T05:14:21.298Z,81.12
2023-05-18T05:16:49.306Z,81.21
2023-05-18T05:19:17.389Z,79.94
2023-05-18T05:21:45.417Z,79.63
2023-05-18T05:24:13.484Z,80.45
2023-05-18T05:26:41.732Z,79.72
2023-05-18T05:29:09.738Z,80.26
2023-05-18T05:31:37.748Z,81.84
2023-05-18T05:34:05.758Z,80.67
2023-05-18T05:36:35.162Z,80.91
2023-05-18T05:39:03.298Z,80.47
2023-05-18T05:41:32.465Z,80.31
2023-05-18T05:44:00.720Z,79.38
2023-05-18T05:46:28.851Z,79.87
2023-05-18T05:48:57.494Z,78.88
2023-05-18T05:51:25.575Z,78.98
2023-05-18T05:53:53.544Z,77.86
2023-05-18T05:56:21.559Z,77.65
2023-05-18T05:58:49.527Z,77.65
2023-05-18T06:01:17.512Z,78.40
2023-05-18T06:03:46.557Z,79.23
2023-05-18T06:06:14.666Z,78.04
2023-05-18T06:08:42.763Z,78.03
2023-05-18T06:11:11.569Z,77.80
2023-05-18T06:13:40.042Z,77.47
2023-05-18T06:16:08.101Z,77.25
2023-05-18T06:18:36.406Z,77.20
2023-05-18T06:21:04.547Z,77.69
2023-05-18T06:23:32.512Z,75.88
2023-05-18T06:26:00.617Z,76.67
2023-05-18T06:28:28.622Z,76.36
2023-05-18T06:30:56.663Z,76.54
2023-05-18T06:33:25.143Z,76.68
2023-05-18T06:35:53.118Z,77.10
2023-05-18T06:38:21.194Z,76.33
2023-05-18T06:40:49.257Z,75.55
2023-05-18T06:43:17.328Z,74.97
2023-05-18T06:45:45.476Z,76.06
2023-05-18T06:48:13.596Z,76.07
2023-05-18T06:50:41.610Z,75.56
2023-05-18T06:53:09.729Z,75.36
2023-05-18T06:55:37.765Z,75.86
2023-05-18T06:58:05.868Z,74.83
2023-05-18T07:00:33.833Z,75.77
2023-05-18T07:03:03.061Z,74.88
2023-05-18T07:05:31.950Z,74.95
2023-05-18T07:08:00.349Z,74.51
2023-05-18T07:10:30.380Z,75.35
2023-05-18T07:12:59.418Z,75.36
2023-05-18T07:15:27.978Z,76.23
2023-05-18T07:17:56.113Z,76.88
2023-05-18T07:20:26.200Z,74.41
2023-05-18T07:22:56.557Z,75.03
2023-05-18T07:25:24.893Z,76.21
2023-05-18T07:27:54.587Z,75.29
2023-05-18T07:30:23.532Z,75.56
2023-05-18T07:32:52.778Z,74.87
2023-05-18T07:35:21.644Z,76.74
2023-05-18T07:37:51.351Z,75.39
2023-05-18T07:40:19.550Z,73.05
2023-05-18T07:42:47.681Z,72.72
2023-05-18T07:45:15.714Z,71.12
2023-05-18T07:47:43.981Z,73.00
2023-05-18T07:50:12.434Z,70.91
2023-05-18T07:52:40.649Z,72.09
2023-05-18T07:55:09.101Z,70.75
2023-05-18T07:57:37.555Z,69.10
2023-05-18T08:00:07.855Z,67.78
2023-05-18T08:02:36.044Z,68.53
2023-05-18T08:05:04.248Z,68.30
2023-05-18T08:07:34.286Z,67.93
2023-05-18T08:10:02.344Z,66.96
2023-05-18T08:12:31.310Z,67.33
2023-05-18T08:15:04.331Z,68.13
2023-05-18T08:17:33.003Z,66.72
2023-05-18T08:20:01.136Z,67.14
2023-05-18T08:22:29.125Z,67.30
2023-05-18T08:24:57.982Z,67.54
2023-05-18T08:27:26.077Z,67.39
2023-05-18T08:29:54.176Z,68.02
2023-05-18T08:32:22.719Z,68.24
2023-05-18T08:34:53.116Z,70.04
2023-05-18T08:37:21.443Z,69.51
2023-05-18T08:39:49.477Z,68.35
2023-05-18T08:42:49.294Z,68.38
2023-05-18T08:45:33.364Z,66.92
2023-05-18T08:48:02.089Z,70.04
2023-05-18T08:50:32.113Z,68.70
2023-05-18T08:53:03.128Z,68.00
2023-05-18T08:55:31.484Z,64.83
2023-05-18T08:58:01.288Z,66.31
2023-05-18T09:00:29.871Z,65.44
2023-05-18T09:02:58.329Z,65.81
2023-05-18T09:05:26.665Z,62.99
2023-05-18T09:07:54.676Z,63.82
2023-05-18T09:10:22.928Z,62.49
2023-05-18T09:12:51.032Z,64.96
2023-05-18T09:15:19.173Z,65.43
2023-05-18T09:17:47.429Z,63.69
2023-05-18T09:20:15.738Z,60.44
2023-05-18T09:22:43.737Z,60.86
2023-05-18T09:25:12.268Z,59.57
2023-05-18T09:27:40.593Z,58.71
2023-05-18T09:30:12.120Z,59.16
2023-05-18T09:32:40.428Z,57.27
2023-05-18T09:35:09.341Z,58.17
2023-05-18T09:37:37.677Z,57.93
2023-05-18T09:40:08.148Z,56.62
2023-05-18T09:42:43.747Z,55.03
2023-05-18T09:45:28.127Z,54.40
2023-05-18T09:47:56.552Z,51.12
2023-05-18T09:50:25.068Z,54.68
2023-05-18T09:52:53.199Z,53.83
2023-05-18T09:55:21.349Z,54.53
2023-05-18T09:57:50.929Z,54.53
2023-05-18T10:00:22.261Z,53.75
2023-05-18T10:02:53.945Z,54.74
2023-05-18T10:05:23.252Z,54.67
2023-05-18T10:07:54.777Z,53.70
2023-05-18T10:10:24.249Z,52.51
2023-05-18T10:12:53.264Z,55.40
2023-05-18T10:15:23.136Z,55.68
2023-05-18T10:17:52.429Z,54.24
2023-05-18T10:20:21.458Z,55.13
2023-05-18T10:22:50.082Z,54.68
2023-05-18T10:25:21.256Z,52.51
2023-05-18T10:27:53.889Z,55.02
2023-05-18T10:30:23.343Z,52.57
2023-05-18T10:32:51.529Z,53.59
2023-05-18T10:35:19.546Z,53.59
2023-05-18T10:37:51.547Z,53.36
2023-05-18T10:40:19.790Z,53.54
2023-05-18T10:42:47.953Z,53.30
2023-05-18T10:45:16.669Z,53.51
2023-05-18T10:47:45.374Z,53.92
2023-05-18T10:50:13.545Z,53.85
2023-05-18T10:52:41.722Z,53.83
2023-05-18T10:55:10.283Z,54.64
2023-05-18T10:57:43.788Z,54.95
2023-05-18T11:00:12.154Z,55.90
2023-05-18T11:02:44.140Z,54.62
2023-05-18T11:05:12.986Z,55.55
2023-05-18T11:07:41.211Z,54.44
2023-05-18T11:10:10.969Z,55.24
2023-05-18T11:12:39.677Z,54.57
2023-05-18T11:15:08.473Z,54.39
2023-05-18T11:17:36.635Z,54.66
2023-05-18T11:20:09.440Z,54.74
2023-05-18T11:23:00.561Z,55.75
2023-05-18T11:25:28.714Z,54.41
2023-05-18T11:27:59.068Z,56.11
2023-05-18T11:30:37.741Z,55.99
2023-05-18T11:33:20.312Z,54.38
2023-05-18T11:36:10.210Z,55.30
2023-05-18T11:39:04.200Z,54.19
2023-05-18T11:41:40.695Z,53.09
2023-05-18T11:44:17.719Z,54.95
2023-05-18T11:46:57.893Z,56.65
2023-05-18T11:49:46.952Z,55.31
2023-05-18T11:52:24.894Z,55.52
2023-05-18T11:54:54.352Z,55.62
2023-05-18T11:57:43.573Z,56.82
2023-05-18T12:00:13.471Z,55.13
2023-05-18T12:02:44.807Z,56.25
2023-05-18T12:05:13.168Z,55.70
2023-05-18T12:07:41.502Z,55.34
2023-05-18T12:10:11.187Z,56.21
2023-05-18T12:12:39.720Z,56.78
2023-05-18T12:15:09.434Z,56.02
2023-05-18T12:17:47.350Z,56.44
2023-05-18T12:20:15.362Z,56.30
2023-05-18T12:22:47.836Z,57.34
2023-05-18T12:25:15.932Z,57.03
2023-05-18T12:27:49.152Z,57.33
2023-05-18T12:30:17.007Z,57.66
2023-05-18T12:32:53.292Z,56.62
2023-05-18T12:35:25.473Z,56.58
2023-05-18T12:37:53.637Z,55.86
2023-05-18T12:40:21.889Z,55.79
2023-05-18T12:43:00.978Z,56.18
2023-05-18T12:45:33.595Z,56.60
2023-05-18T12:48:12.454Z,58.56
2023-05-18T12:50:50.614Z,59.19
2023-05-18T12:53:19.279Z,57.01
2023-05-18T12:55:47.250Z,58.46
2023-05-18T12:58:18.138Z,58.73
2023-05-18T13:00:47.381Z,57.81
2023-05-18T13:03:19.946Z,57.57
2023-05-18T13:06:07.777Z,58.11
2023-05-18T13:08:36.412Z,59.04
2023-05-18T13:11:13.607Z,57.92
2023-05-18T13:14:07.867Z,57.98
2023-05-18T13:16:36.530Z,58.99
2023-05-18T13:19:09.646Z,58.42
2023-05-18T13:21:37.895Z,58.17
2023-05-18T13:24:06.328Z,58.82
2023-05-18T13:26:34.460Z,58.91
2023-05-18T13:29:02.553Z,59.32
2023-05-18T13:31:33.518Z,59.50
2023-05-18T13:34:01.835Z,59.09
2023-05-18T13:36:31.055Z,59.02
2023-05-18T13:38:59.127Z,60.01
2023-05-18T13:41:27.293Z,60.25
2023-05-18T13:43:55.377Z,59.84
2023-05-18T13:46:23.458Z,58.88
2023-05-18T13:48:51.496Z,58.96
2023-05-18T13:51:19.596Z,58.79
2023-05-18T13:53:47.685Z,59.01
2023-05-18T13:56:15.634Z,60.21
2023-05-18T13:58:45.013Z,59.67
2023-05-18T14:01:14.022Z,59.10
2023-05-18T14:03:42.394Z,59.33
2023-05-18T14:06:10.573Z,59.83
2023-05-18T14:08:38.664Z,59.48
2023-05-18T14:11:06.883Z,60.05
2023-05-18T14:13:34.914Z,61.08
2023-05-18T14:16:03.006Z,59.43
2023-05-18T14:18:31.022Z,60.75
2023-05-18T14:21:03.405Z,60.50
2023-05-18T14:23:31.508Z,60.06
2023-05-18T14:25:59.567Z,60.05
2023-05-18T14:28:27.551Z,59.17
2023-05-18T14:30:55.679Z,59.39
2023-05-18T14:33:23.706Z,59.73
2023-05-18T14:35:51.713Z,58.15
2023-05-18T14:38:19.739Z,58.85
2023-05-18T14:40:47.788Z,58.99
2023-05-18T14:43:15.834Z,59.19
2023-05-18T14:45:48.324Z,60.24
2023-05-18T14:48:21.458Z,59.38
2023-05-18T14:50:49.522Z,59.21
2023-05-18T14:53:17.516Z,59.47
2023-05-18T14:55:45.605Z,59.09
2023-05-18T14:58:16.206Z,59.74
2023-05-18T15:00:44.314Z,59.98
2023-05-18T15:03:12.646Z,59.65
2023-05-18T15:05:40.925Z,60.71
2023-05-18T15:08:09.042Z,60.17
2023-05-18T15:10:37.260Z,60.70
2023-05-18T15:13:05.298Z,60.76
2023-05-18T15:15:33.311Z,60.88
2023-05-18T15:18:01.298Z,60.16
2023-05-18T15:20:29.508Z,59.71
2023-05-18T15:22:57.739Z,59.50
2023-05-18T15:25:25.780Z,60.10
2023-05-18T15:27:54.990Z,59.52
2023-05-18T15:30:23.045Z,60.38
2023-05-18T15:32:51.143Z,60.02
2023-05-18T15:35:19.223Z,60.42
2023-05-18T15:37:47.554Z,60.60
2023-05-18T15:40:15.609Z,60.62
2023-05-18T15:42:43.831Z,60.30
2023-05-18T15:45:12.249Z,60.64
2023-05-18T15:47:40.408Z,60.63
2023-05-18T15:50:08.785Z,60.35
2023-05-18T15:52:36.806Z,60.51
2023-05-18T15:55:04.876Z,60.23
2023-05-18T15:57:34.476Z,60.24
2023-05-18T16:00:02.551Z,59.96
2023-05-18T16:02:30.709Z,61.55
2023-05-18T16:04:58.787Z,61.69
2023-05-18T16:07:26.896Z,61.25
2023-05-18T16:09:54.993Z,61.32
2023-05-18T16:12:22.989Z,61.62
2023-05-18T16:14:51.656Z,61.57
2023-05-18T16:17:19.886Z,61.38
2023-05-18T16:19:48.225Z,61.72
2023-05-18T16:22:16.344Z,60.98
2023-05-18T16:24:44.985Z,61.31
2023-05-18T16:27:13.066Z,61.80
2023-05-18T16:29:42.746Z,61.23
2023-05-18T16:32:11.437Z,60.78
2023-05-18T16:34:39.496Z,62.44
2023-05-18T16:37:07.547Z,61.99
2023-05-18T16:39:35.677Z,62.24
2023-05-18T16:42:03.741Z,61.11
2023-05-18T16:44:31.858Z,61.65
2023-05-18T16:47:00.062Z,61.59
2023-05-18T16:49:28.246Z,61.84
2023-05-18T16:51:56.249Z,63.85
2023-05-18T16:54:24.446Z,63.42
2023-05-18T16:56:53.347Z,62.86
2023-05-18T16:59:23.999Z,62.39
2023-05-18T17:01:52.053Z,60.99
2023-05-18T17:04:20.155Z,62.14
2023-05-18T17:06:48.291Z,62.09
2023-05-18T17:09:17.687Z,61.35
2023-05-18T17:11:45.743Z,60.85
2023-05-18T17:14:13.822Z,61.30
2023-05-18T17:16:42.434Z,61.86
2023-05-18T17:19:10.543Z,61.46
2023-05-18T17:21:38.588Z,61.67
2023-05-18T17:24:06.777Z,62.23
2023-05-18T17:26:34.774Z,61.78
2023-05-18T17:29:02.952Z,62.00
2023-05-18T17:31:31.823Z,62.81
2023-05-18T17:33:59.933Z,62.57
2023-05-18T17:36:28.037Z,62.18
2023-05-18T17:38:57.506Z,61.52
2023-05-18T17:41:27.137Z,61.25
2023-05-18T17:43:55.177Z,61.27
2023-05-18T17:46:23.242Z,61.77
2023-05-18T17:48:51.399Z,61.11
2023-05-18T17:51:19.473Z,61.52
2023-05-18T17:53:47.685Z,62.04
2023-05-18T17:56:15.764Z,60.03
2023-05-18T17:58:43.825Z,60.41
2023-05-18T18:01:13.495Z,61.29
2023-05-18T18:03:41.645Z,62.33
2023-05-18T18:06:10.024Z,61.30
2023-05-18T18:08:38.299Z,62.44
2023-05-18T18:11:09.055Z,61.52
2023-05-18T18:13:37.381Z,61.52
2023-05-18T18:16:05.686Z,61.97
2023-05-18T18:18:34.126Z,61.05
2023-05-18T18:21:02.216Z,61.49
2023-05-18T18:23:30.208Z,61.63
2023-05-18T18:25:58.195Z,61.73
2023-05-18T18:28:26.254Z,64.21
2023-05-18T18:30:54.464Z,62.56
2023-05-18T18:33:22.715Z,62.28
2023-05-18T18:35:50.820Z,62.57
2023-05-18T18:38:18.841Z,62.63
2023-05-18T18:40:46.941Z,62.58
2023-05-18T18:43:15.050Z,63.28
2023-05-18T18:45:43.278Z,62.37
2023-05-18T18:48:11.434Z,62.65
2023-05-18T18:50:39.464Z,62.82
2023-05-18T18:53:07.567Z,63.38
2023-05-18T18:55:35.618Z,63.47
2023-05-18T18:58:03.773Z,63.78
2023-05-18T19:00:31.948Z,64.19
2023-05-18T19:02:59.976Z,63.99
2023-05-18T19:05:28.383Z,63.97
2023-05-18T19:07:57.015Z,63.67
2023-05-18T19:10:25.174Z,64.29
2023-05-18T19:12:53.704Z,64.44
2023-05-18T19:15:22.678Z,65.18
2023-05-18T19:17:55.081Z,64.33
2023-05-18T19:20:23.656Z,64.53
2023-05-18T19:22:51.808Z,65.01
2023-05-18T19:25:19.844Z,65.04
2023-05-18T19:27:47.935Z,66.79
2023-05-18T19:30:22.387Z,65.69
2023-05-18T19:32:51.279Z,65.46
2023-05-18T19:35:20.267Z,65.79
2023-05-18T19:37:48.665Z,65.50
2023-05-18T19:40:17.847Z,65.67
2023-05-18T19:42:46.045Z,65.33
2023-05-18T19:45:14.198Z,66.25
2023-05-18T19:47:42.215Z,66.14
2023-05-18T19:50:11.746Z,65.76
2023-05-18T19:52:39.733Z,65.76
2023-05-18T19:55:08.333Z,66.08
2023-05-18T19:57:36.396Z,67.71
2023-05-18T20:00:05.469Z,66.53
2023-05-18T20:02:33.529Z,66.77
2023-05-18T20:05:02.027Z,66.97
2023-05-18T20:07:30.064Z,66.52
2023-05-18T20:09:58.069Z,67.67
2023-05-18T20:12:26.257Z,66.63
2023-05-18T20:14:57.613Z,66.34
2023-05-18T20:17:26.987Z,67.12
2023-05-18T20:19:55.107Z,66.36
2023-05-18T20:22:23.184Z,66.39
2023-05-18T20:24:51.262Z,66.65
2023-05-18T20:27:19.423Z,67.15
2023-05-18T20:29:48.490Z,67.09
2023-05-18T20:32:16.823Z,67.49
2023-05-18T20:34:45.879Z,67.36
2023-05-18T20:37:15.222Z,67.17
2023-05-18T20:39:51.661Z,67.45
2023-05-18T20:42:23.279Z,67.23
2023-05-18T20:44:52.826Z,67.63
2023-05-18T20:47:21.705Z,67.64
2023-05-18T20:49:49.882Z,68.98
2023-05-18T20:52:18.201Z,67.41
2023-05-18T20:54:46.318Z,67.88
2023-05-18T20:57:14.483Z,67.74
2023-05-18T20:59:42.773Z,68.61
2023-05-18T21:02:10.774Z,68.47
2023-05-18T21:04:38.796Z,69.91
2023-05-18T21:07:06.924Z,69.05
2023-05-18T21:09:35.860Z,68.54
2023-05-18T21:12:04.057Z,69.15
2023-05-18T21:14:32.204Z,68.89
2023-05-18T21:17:00.203Z,69.05
2023-05-18T21:19:28.190Z,68.45
2023-05-18T21:21:56.327Z,68.41
2023-05-18T21:24:24.325Z,68.68
2023-05-18T21:26:52.395Z,69.54
2023-05-18T21:29:20.444Z,69.74
2023-05-18T21:31:49.978Z,69.40
2023-05-18T21:34:18.098Z,69.51
2023-05-18T21:36:46.114Z,69.84
2023-05-18T21:39:14.127Z,70.14
2023-05-18T21:41:43.738Z,69.82
2023-05-18T21:44:11.889Z,70.46
2023-05-18T21:46:40.084Z,70.66
2023-05-18T21:49:08.477Z,71.76
2023-05-18T21:51:36.512Z,72.09
2023-05-18T21:54:05.340Z,71.15
2023-05-18T21:56:35.957Z,71.21
2023-05-18T21:59:04.012Z,70.69
2023-05-18T22:01:32.303Z,70.77
2023-05-18T22:04:00.329Z,71.34
2023-05-18T22:06:28.312Z,71.44
2023-05-18T22:08:56.584Z,72.12
2023-05-18T22:11:24.687Z,72.75
2023-05-18T22:13:52.841Z,71.39
2023-05-18T22:16:20.852Z,72.13
2023-05-18T22:18:48.874Z,71.90
2023-05-18T22:21:17.120Z,71.80
2023-05-18T22:23:45.151Z,71.99
2023-05-18T22:26:13.609Z,72.20
2023-05-18T22:28:41.883Z,72.17
2023-05-18T22:31:09.980Z,72.35
2023-05-18T22:33:37.978Z,72.45
2023-05-18T22:36:06.338Z,72.92
2023-05-18T22:38:34.280Z,72.42
2023-05-18T22:41:02.245Z,73.39
2023-05-18T22:43:31.170Z,72.69
2023-05-18T22:45:59.371Z,72.20
2023-05-18T22:48:27.660Z,73.11
2023-05-18T22:50:55.937Z,72.62
2023-05-18T22:53:23.897Z,73.08
2023-05-18T22:55:51.919Z,72.51
2023-05-18T22:58:19.909Z,73.70
2023-05-18T23:00:47.867Z,73.37
2023-05-18T23:03:18.543Z,72.67
2023-05-18T23:05:49.582Z,73.34
2023-05-18T23:08:17.625Z,73.29
2023-05-18T23:10:45.763Z,73.04
2023-05-18T23:13:17.476Z,74.21
2023-05-18T23:15:45.737Z,73.73
2023-05-18T23:18:13.967Z,74.29
2023-05-18T23:20:43.341Z,74.05
2023-05-18T23:23:11.395Z,73.88
2023-05-18T23:25:39.417Z,75.05
2023-05-18T23:28:07.435Z,74.17
2023-05-18T23:30:35.384Z,73.57
2023-05-18T23:33:03.867Z,73.80
2023-05-18T23:35:32.328Z,74.95
2023-05-18T23:38:03.412Z,74.94
2023-05-18T23:40:31.837Z,74.79
2023-05-18T23:43:02.132Z,75.66
2023-05-18T23:45:30.475Z,75.69
2023-05-18T23:47:59.141Z,75.37
2023-05-18T23:50:27.612Z,75.41
2023-05-18T23:52:55.694Z,75.52
2023-05-18T23:55:27.039Z,76.66
2023-05-18T23:57:54.984Z,76.16
